• Join FlightAware (Why Join?)
  • Login
  • US Flag 
Trick or treat! (Boo!!) 
01:27PM EDT


 

Airport Tracker/Info


-or-


 

Live Flight TrackerFlight Track Log ✈ SWA378 ✈ 20-May-2013 ✈ KORF - KBWI

Flight Track Log - Related Links

Times and Time Zones

All times are in EDT time to prevent confusion due to time zone crossing. See the SWA378 flight status page for this flight to view local times or setup timezone preferences in your user account.

Time Position Orientation Groundspeed Altitude Reporting Facility
EDT Latitude Longitude Course Direction KTS MPH feet Rate Location/Type
08:07PM 36.8508 -76.2719 233° Southwest 218 251 3,900  Level Washington Center
08:08PM 36.8922 -76.3372 308° West 271 312 6,700 3,660 Climbing Washington Center
08:09PM 36.9586 -76.4003 323° Northwest 277 319 11,300 4,260 Climbing Washington Center
08:10PM 37.0269 -76.4686 321° Northwest 293 337 15,200 2,340 Climbing Washington Center
08:11PM 37.1017 -76.5397 323° Northwest 322 371 16,000 360 Climbing Washington Center
08:12PM 37.1803 -76.6164 322° Northwest 340 391 16,000  Level Washington Center
08:13PM 37.2547 -76.6903 322° Northwest 346 398 16,000  Level Washington Center
08:14PM 37.3208 -76.7619 319° Northwest 346 398 16,000  Level Washington Center
08:15PM 37.3697 -76.8775 298° West 335 386 16,000  Level Washington Center
08:16PM 37.3978 -76.9747 290° West 340 391 16,000  Level Washington Center
08:17PM 37.4256 -77.1008 286° West 345 397 16,000  Level Washington Center
08:18PM 37.4447 -77.2189 282° West 340 391 16,000  Level Washington Center
08:19PM 37.4639 -77.3369 282° West 340 391 16,000  Level Washington Center
08:20PM 37.5467 -77.3861 335° Northwest 303 349 16,000 -360 Level Washington Center
08:21PM 37.6422 -77.4092 349° North 309 356 15,400 -540 Descending Washington Center
08:22PM 37.7378 -77.4300 350° North 323 372 15,000 -240 Descending Washington Center
08:23PM 37.8300 -77.4139 North 334 384 15,000  Level Washington Center
08:24PM 37.9161 -77.3686 23° Northeast 322 371 15,000  Level Washington Center
08:25PM 38.0042 -77.3283 20° North 322 371 15,000  Level Washington Center
08:26PM 38.0861 -77.2908 20° North 322 371 15,000  Level Washington Center
08:27PM 38.1683 -77.2292 31° Northeast 328 377 15,000  Level Washington Center
08:28PM 38.2528 -77.1517 36° Northeast 341 392 15,000 -600 Level Washington Center
08:29PM 38.3308 -77.0819 35° Northeast 354 407 13,900 -1,200 Descending Washington Center
08:30PM 38.4108 -77.0092 35° Northeast 354 407 12,600 -1,080 Descending Washington Center
08:31PM 38.4847 -76.9444 34° Northeast 354 407 11,800 -1,140 Descending Washington Center
08:32PM 38.5625 -76.8742 35° Northeast 349 402 10,400 -900 Descending Washington Center
08:33PM 38.6261 -76.7875 47° Northeast 336 387 10,000 -720 Descending Washington Center
08:34PM 38.6789 -76.7086 49° Northeast 310 357 9,000 -1,380 Descending Washington Center
08:35PM 38.7297 -76.6294 51° Northeast 297 342 7,400 -1,740 Descending Washington Center
08:36PM 38.7500 -76.6000 49° Northeast 289 333 6,700 -1,080 Descending Potomac TRACON
08:37PM 38.8167 -76.5333 38° Northeast 288 331 6,000 -1,080 Descending Potomac TRACON
08:37PM 38.8833 -76.5333 360° North 278 320 4,700 -1,080 Descending Potomac TRACON
08:38PM 38.9500 -76.5667 339° North 264 304 4,000 -840 Descending Potomac TRACON
08:39PM 39.0167 -76.5833 349° North 247 284 3,100 -900 Descending Potomac TRACON
08:40PM 39.0833 -76.6000 349° North 205 236 2,300 -1,020 Descending Potomac TRACON
08:41PM 39.1333 -76.6333 333° Northwest 171 197 1,100 -1,200 Descending Potomac TRACON
08:43PM 39.1667 -76.6667 339° North  Level FlightAware Approximate
08:50PM 39.1754 -76.6683 339° North  Level Estimated
08:51PM 39.1754 -76.6683 339° North  Level Estimated
08:52PM 39.1754 -76.6683 339° North  Level Estimated
08:53PM 39.1754 -76.6683 339° North  Level Estimated
08:54PM 39.1754 -76.6683 339° North  Level Estimated